sensor_id;sensor_type;location;lat;lon;timestamp;P1;durP1;ratioP1;P2;durP2;ratioP2
14754;SDS011;7469;50.906;6.952;2022-12-18T00:01:31;18.30;;;8.98;;
14754;SDS011;7469;50.906;6.952;2022-12-18T00:04:02;17.98;;;8.82;;
14754;SDS011;7469;50.906;6.952;2022-12-18T00:06:33;17.00;;;9.32;;
14754;SDS011;7469;50.906;6.952;2022-12-18T00:09:02;16.52;;;7.82;;
14754;SDS011;7469;50.906;6.952;2022-12-18T00:11:32;19.52;;;8.85;;
14754;SDS011;7469;50.906;6.952;2022-12-18T00:14:00;18.80;;;9.52;;
14754;SDS011;7469;50.906;6.952;2022-12-18T00:16:28;17.90;;;9.15;;
14754;SDS011;7469;50.906;6.952;2022-12-18T00:18:59;16.60;;;8.73;;
14754;SDS011;7469;50.906;6.952;2022-12-18T00:21:27;19.30;;;8.57;;
14754;SDS011;7469;50.906;6.952;2022-12-18T00:23:57;16.23;;;9.10;;
14754;SDS011;7469;50.906;6.952;2022-12-18T00:26:27;20.98;;;9.55;;
14754;SDS011;7469;50.906;6.952;2022-12-18T00:28:57;22.13;;;10.25;;
14754;SDS011;7469;50.906;6.952;2022-12-18T00:31:27;16.42;;;8.63;;
14754;SDS011;7469;50.906;6.952;2022-12-18T00:33:55;15.27;;;8.32;;
14754;SDS011;7469;50.906;6.952;2022-12-18T00:36:25;20.88;;;9.05;;
14754;SDS011;7469;50.906;6.952;2022-12-18T00:38:55;18.05;;;9.15;;
14754;SDS011;7469;50.906;6.952;2022-12-18T00:41:24;18.65;;;8.48;;
14754;SDS011;7469;50.906;6.952;2022-12-18T00:44:12;19.20;;;8.73;;
14754;SDS011;7469;50.906;6.952;2022-12-18T00:46:41;19.67;;;9.70;;
14754;SDS011;7469;50.906;6.952;2022-12-18T00:49:10;18.17;;;9.20;;
14754;SDS011;7469;50.906;6.952;2022-12-18T00:51:38;16.08;;;8.80;;
14754;SDS011;7469;50.906;6.952;2022-12-18T00:54:06;17.05;;;9.00;;
14754;SDS011;7469;50.906;6.952;2022-12-18T00:56:36;18.98;;;9.18;;
14754;SDS011;7469;50.906;6.952;2022-12-18T00:59:14;16.60;;;8.45;;
14754;SDS011;7469;50.906;6.952;2022-12-18T01:01:42;17.73;;;8.55;;
14754;SDS011;7469;50.906;6.952;2022-12-18T01:04:11;21.15;;;8.98;;
14754;SDS011;7469;50.906;6.952;2022-12-18T01:06:39;18.73;;;9.07;;
14754;SDS011;7469;50.906;6.952;2022-12-18T01:09:07;17.88;;;8.73;;
14754;SDS011;7469;50.906;6.952;2022-12-18T01:11:36;16.48;;;8.23;;
14754;SDS011;7469;50.906;6.952;2022-12-18T01:14:04;17.17;;;8.38;;
14754;SDS011;7469;50.906;6.952;2022-12-18T01:16:32;19.85;;;9.80;;
14754;SDS011;7469;50.906;6.952;2022-12-18T01:19:00;20.83;;;8.85;;
14754;SDS011;7469;50.906;6.952;2022-12-18T01:21:28;19.65;;;9.07;;
14754;SDS011;7469;50.906;6.952;2022-12-18T01:23:57;21.48;;;9.75;;
14754;SDS011;7469;50.906;6.952;2022-12-18T01:26:25;17.95;;;8.75;;
14754;SDS011;7469;50.906;6.952;2022-12-18T01:28:57;15.77;;;8.05;;
14754;SDS011;7469;50.906;6.952;2022-12-18T01:31:25;17.95;;;9.40;;
14754;SDS011;7469;50.906;6.952;2022-12-18T01:33:55;17.55;;;8.98;;
14754;SDS011;7469;50.906;6.952;2022-12-18T01:36:24;21.25;;;9.68;;
14754;SDS011;7469;50.906;6.952;2022-12-18T01:38:53;20.40;;;9.68;;
14754;SDS011;7469;50.906;6.952;2022-12-18T01:41:22;20.83;;;9.35;;
14754;SDS011;7469;50.906;6.952;2022-12-18T01:43:53;16.50;;;9.20;;
14754;SDS011;7469;50.906;6.952;2022-12-18T01:46:25;18.63;;;9.60;;
14754;SDS011;7469;50.906;6.952;2022-12-18T01:48:56;20.83;;;9.82;;
14754;SDS011;7469;50.906;6.952;2022-12-18T01:51:27;21.30;;;9.93;;
14754;SDS011;7469;50.906;6.952;2022-12-18T01:53:57;14.75;;;8.82;;
14754;SDS011;7469;50.906;6.952;2022-12-18T01:56:26;16.35;;;9.20;;
14754;SDS011;7469;50.906;6.952;2022-12-18T01:58:55;21.05;;;10.15;;
14754;SDS011;7469;50.906;6.952;2022-12-18T02:01:28;19.27;;;9.57;;
14754;SDS011;7469;50.906;6.952;2022-12-18T02:04:10;16.60;;;9.25;;
14754;SDS011;7469;50.906;6.952;2022-12-18T02:06:47;17.08;;;9.00;;
14754;SDS011;7469;50.906;6.952;2022-12-18T02:09:23;18.30;;;9.82;;
14754;SDS011;7469;50.906;6.952;2022-12-18T02:11:57;19.33;;;10.90;;
14754;SDS011;7469;50.906;6.952;2022-12-18T02:14:28;18.60;;;9.48;;
14754;SDS011;7469;50.906;6.952;2022-12-18T02:17:08;19.23;;;9.70;;
14754;SDS011;7469;50.906;6.952;2022-12-18T02:19:47;21.83;;;10.38;;
14754;SDS011;7469;50.906;6.952;2022-12-18T02:22:29;20.45;;;9.98;;
14754;SDS011;7469;50.906;6.952;2022-12-18T02:25:12;18.17;;;9.05;;
14754;SDS011;7469;50.906;6.952;2022-12-18T02:27:48;19.65;;;9.10;;
14754;SDS011;7469;50.906;6.952;2022-12-18T02:30:19;15.52;;;8.57;;
14754;SDS011;7469;50.906;6.952;2022-12-18T02:32:48;17.73;;;9.50;;
14754;SDS011;7469;50.906;6.952;2022-12-18T02:35:20;16.20;;;9.55;;
14754;SDS011;7469;50.906;6.952;2022-12-18T02:37:51;21.33;;;10.10;;
14754;SDS011;7469;50.906;6.952;2022-12-18T02:40:21;21.92;;;9.10;;
14754;SDS011;7469;50.906;6.952;2022-12-18T02:42:52;17.90;;;8.43;;
14754;SDS011;7469;50.906;6.952;2022-12-18T02:45:21;16.08;;;9.25;;
14754;SDS011;7469;50.906;6.952;2022-12-18T02:47:49;16.50;;;9.13;;
14754;SDS011;7469;50.906;6.952;2022-12-18T02:50:18;16.92;;;9.55;;
14754;SDS011;7469;50.906;6.952;2022-12-18T02:52:54;15.77;;;8.73;;
14754;SDS011;7469;50.906;6.952;2022-12-18T02:55:32;17.05;;;9.27;;
14754;SDS011;7469;50.906;6.952;2022-12-18T02:58:13;22.05;;;9.23;;
14754;SDS011;7469;50.906;6.952;2022-12-18T03:00:47;15.80;;;8.45;;
14754;SDS011;7469;50.906;6.952;2022-12-18T03:03:21;17.25;;;9.02;;
14754;SDS011;7469;50.906;6.952;2022-12-18T03:05:53;21.00;;;9.55;;
14754;SDS011;7469;50.906;6.952;2022-12-18T03:08:26;18.50;;;9.13;;
14754;SDS011;7469;50.906;6.952;2022-12-18T03:10:57;17.65;;;8.80;;
14754;SDS011;7469;50.906;6.952;2022-12-18T03:13:31;17.95;;;10.07;;
14754;SDS011;7469;50.906;6.952;2022-12-18T03:16:04;20.98;;;9.40;;
14754;SDS011;7469;50.906;6.952;2022-12-18T03:18:36;19.13;;;8.95;;
14754;SDS011;7469;50.906;6.952;2022-12-18T03:21:09;17.15;;;8.75;;
14754;SDS011;7469;50.906;6.952;2022-12-18T03:23:42;19.00;;;9.70;;
14754;SDS011;7469;50.906;6.952;2022-12-18T03:26:15;15.18;;;9.82;;
14754;SDS011;7469;50.906;6.952;2022-12-18T03:28:47;17.83;;;10.13;;
14754;SDS011;7469;50.906;6.952;2022-12-18T03:31:18;19.48;;;9.10;;
14754;SDS011;7469;50.906;6.952;2022-12-18T03:33:51;16.50;;;9.50;;
14754;SDS011;7469;50.906;6.952;2022-12-18T03:36:20;19.17;;;9.95;;
14754;SDS011;7469;50.906;6.952;2022-12-18T03:38:50;20.15;;;9.52;;
14754;SDS011;7469;50.906;6.952;2022-12-18T03:41:19;17.55;;;8.55;;
14754;SDS011;7469;50.906;6.952;2022-12-18T03:43:59;17.08;;;8.80;;
14754;SDS011;7469;50.906;6.952;2022-12-18T03:46:36;18.40;;;10.05;;
14754;SDS011;7469;50.906;6.952;2022-12-18T03:49:16;19.50;;;9.50;;
14754;SDS011;7469;50.906;6.952;2022-12-18T03:51:51;18.98;;;9.68;;
14754;SDS011;7469;50.906;6.952;2022-12-18T03:54:21;17.90;;;9.10;;
14754;SDS011;7469;50.906;6.952;2022-12-18T03:56:52;18.45;;;9.40;;
14754;SDS011;7469;50.906;6.952;2022-12-18T03:59:26;16.40;;;9.38;;
14754;SDS011;7469;50.906;6.952;2022-12-18T04:01:56;20.52;;;9.77;;
14754;SDS011;7469;50.906;6.952;2022-12-18T04:04:27;20.98;;;9.93;;
14754;SDS011;7469;50.906;6.952;2022-12-18T04:06:57;17.63;;;8.77;;
14754;SDS011;7469;50.906;6.952;2022-12-18T04:09:26;17.73;;;10.13;;
14754;SDS011;7469;50.906;6.952;2022-12-18T04:11:55;26.52;;;11.98;;
14754;SDS011;7469;50.906;6.952;2022-12-18T04:14:23;19.33;;;10.55;;
14754;SDS011;7469;50.906;6.952;2022-12-18T04:16:52;18.33;;;10.07;;
14754;SDS011;7469;50.906;6.952;2022-12-18T04:19:20;18.85;;;10.32;;
14754;SDS011;7469;50.906;6.952;2022-12-18T04:21:48;20.20;;;9.55;;
14754;SDS011;7469;50.906;6.952;2022-12-18T04:24:16;19.15;;;10.18;;
14754;SDS011;7469;50.906;6.952;2022-12-18T04:26:44;17.60;;;9.23;;
14754;SDS011;7469;50.906;6.952;2022-12-18T04:29:12;21.95;;;9.77;;
14754;SDS011;7469;50.906;6.952;2022-12-18T04:31:41;19.83;;;10.25;;
14754;SDS011;7469;50.906;6.952;2022-12-18T04:34:09;19.42;;;9.85;;
14754;SDS011;7469;50.906;6.952;2022-12-18T04:36:37;19.35;;;9.82;;
14754;SDS011;7469;50.906;6.952;2022-12-18T04:39:05;21.55;;;10.07;;
14754;SDS011;7469;50.906;6.952;2022-12-18T04:41:33;19.40;;;9.82;;
14754;SDS011;7469;50.906;6.952;2022-12-18T04:44:01;21.55;;;10.60;;
14754;SDS011;7469;50.906;6.952;2022-12-18T04:46:29;19.17;;;10.10;;
14754;SDS011;7469;50.906;6.952;2022-12-18T04:48:58;19.92;;;9.90;;
14754;SDS011;7469;50.906;6.952;2022-12-18T04:51:26;23.95;;;11.57;;
14754;SDS011;7469;50.906;6.952;2022-12-18T04:53:54;20.73;;;10.43;;
14754;SDS011;7469;50.906;6.952;2022-12-18T04:56:22;23.27;;;11.70;;
14754;SDS011;7469;50.906;6.952;2022-12-18T04:58:50;24.48;;;11.20;;
14754;SDS011;7469;50.906;6.952;2022-12-18T05:01:18;20.88;;;10.23;;
14754;SDS011;7469;50.906;6.952;2022-12-18T05:03:46;20.63;;;10.45;;
14754;SDS011;7469;50.906;6.952;2022-12-18T05:06:16;19.63;;;10.38;;
14754;SDS011;7469;50.906;6.952;2022-12-18T05:08:44;21.45;;;10.73;;
14754;SDS011;7469;50.906;6.952;2022-12-18T05:11:12;25.00;;;10.82;;
14754;SDS011;7469;50.906;6.952;2022-12-18T05:13:42;20.00;;;11.07;;
14754;SDS011;7469;50.906;6.952;2022-12-18T05:16:11;22.42;;;10.00;;
14754;SDS011;7469;50.906;6.952;2022-12-18T05:18:39;21.85;;;10.50;;
14754;SDS011;7469;50.906;6.952;2022-12-18T05:21:07;20.13;;;10.27;;
14754;SDS011;7469;50.906;6.952;2022-12-18T05:23:36;26.48;;;10.98;;
14754;SDS011;7469;50.906;6.952;2022-12-18T05:26:06;18.95;;;10.10;;
14754;SDS011;7469;50.906;6.952;2022-12-18T05:28:34;20.73;;;10.93;;
14754;SDS011;7469;50.906;6.952;2022-12-18T05:31:03;19.80;;;11.00;;
14754;SDS011;7469;50.906;6.952;2022-12-18T05:33:32;21.60;;;10.90;;
14754;SDS011;7469;50.906;6.952;2022-12-18T05:36:01;23.70;;;11.38;;
14754;SDS011;7469;50.906;6.952;2022-12-18T05:38:32;22.52;;;10.00;;
14754;SDS011;7469;50.906;6.952;2022-12-18T05:41:02;22.88;;;10.85;;
14754;SDS011;7469;50.906;6.952;2022-12-18T05:43:31;26.17;;;11.70;;
14754;SDS011;7469;50.906;6.952;2022-12-18T05:46:02;19.63;;;10.10;;
14754;SDS011;7469;50.906;6.952;2022-12-18T05:48:31;21.50;;;10.10;;
14754;SDS011;7469;50.906;6.952;2022-12-18T05:51:03;19.55;;;10.00;;
14754;SDS011;7469;50.906;6.952;2022-12-18T05:53:33;18.35;;;9.43;;
14754;SDS011;7469;50.906;6.952;2022-12-18T05:56:04;22.25;;;10.23;;
14754;SDS011;7469;50.906;6.952;2022-12-18T05:58:52;25.58;;;11.80;;
14754;SDS011;7469;50.906;6.952;2022-12-18T06:01:22;24.42;;;10.88;;
14754;SDS011;7469;50.906;6.952;2022-12-18T06:03:51;20.90;;;10.48;;
14754;SDS011;7469;50.906;6.952;2022-12-18T06:06:20;19.75;;;9.95;;
14754;SDS011;7469;50.906;6.952;2022-12-18T06:08:50;22.83;;;11.63;;
14754;SDS011;7469;50.906;6.952;2022-12-18T06:11:19;20.13;;;10.68;;
14754;SDS011;7469;50.906;6.952;2022-12-18T06:13:49;20.88;;;10.60;;
14754;SDS011;7469;50.906;6.952;2022-12-18T06:16:25;20.27;;;10.32;;
14754;SDS011;7469;50.906;6.952;2022-12-18T06:18:53;18.48;;;10.52;;
14754;SDS011;7469;50.906;6.952;2022-12-18T06:21:23;17.90;;;9.82;;
14754;SDS011;7469;50.906;6.952;2022-12-18T06:23:51;25.17;;;11.95;;
14754;SDS011;7469;50.906;6.952;2022-12-18T06:26:19;22.85;;;10.88;;
14754;SDS011;7469;50.906;6.952;2022-12-18T06:28:53;17.88;;;9.68;;
14754;SDS011;7469;50.906;6.952;2022-12-18T06:31:21;18.52;;;10.02;;
14754;SDS011;7469;50.906;6.952;2022-12-18T06:33:50;20.77;;;10.35;;
14754;SDS011;7469;50.906;6.952;2022-12-18T06:36:18;19.45;;;11.05;;
14754;SDS011;7469;50.906;6.952;2022-12-18T06:38:47;26.92;;;11.32;;
14754;SDS011;7469;50.906;6.952;2022-12-18T06:41:15;21.83;;;10.65;;
14754;SDS011;7469;50.906;6.952;2022-12-18T06:43:44;24.10;;;11.50;;
14754;SDS011;7469;50.906;6.952;2022-12-18T06:46:12;22.33;;;11.85;;
14754;SDS011;7469;50.906;6.952;2022-12-18T06:48:41;21.80;;;11.63;;
14754;SDS011;7469;50.906;6.952;2022-12-18T06:51:10;20.30;;;11.25;;
14754;SDS011;7469;50.906;6.952;2022-12-18T06:53:38;20.77;;;11.77;;
14754;SDS011;7469;50.906;6.952;2022-12-18T06:56:06;22.67;;;11.20;;
14754;SDS011;7469;50.906;6.952;2022-12-18T06:58:36;19.85;;;10.50;;
14754;SDS011;7469;50.906;6.952;2022-12-18T07:01:05;22.05;;;11.05;;
14754;SDS011;7469;50.906;6.952;2022-12-18T07:03:36;23.23;;;11.63;;
14754;SDS011;7469;50.906;6.952;2022-12-18T07:06:05;21.95;;;10.60;;
14754;SDS011;7469;50.906;6.952;2022-12-18T07:08:34;20.33;;;10.35;;
14754;SDS011;7469;50.906;6.952;2022-12-18T07:11:03;23.77;;;11.52;;
14754;SDS011;7469;50.906;6.952;2022-12-18T07:13:31;22.20;;;11.30;;
14754;SDS011;7469;50.906;6.952;2022-12-18T07:16:06;22.02;;;11.15;;
14754;SDS011;7469;50.906;6.952;2022-12-18T07:18:46;21.67;;;11.43;;
14754;SDS011;7469;50.906;6.952;2022-12-18T07:21:14;20.65;;;10.95;;
14754;SDS011;7469;50.906;6.952;2022-12-18T07:23:45;20.52;;;10.77;;
14754;SDS011;7469;50.906;6.952;2022-12-18T07:26:14;20.92;;;11.32;;
14754;SDS011;7469;50.906;6.952;2022-12-18T07:28:43;21.60;;;11.20;;
14754;SDS011;7469;50.906;6.952;2022-12-18T07:31:12;24.15;;;11.73;;
14754;SDS011;7469;50.906;6.952;2022-12-18T07:33:41;24.27;;;11.82;;
14754;SDS011;7469;50.906;6.952;2022-12-18T07:36:10;21.70;;;11.38;;
14754;SDS011;7469;50.906;6.952;2022-12-18T07:38:38;21.38;;;11.55;;
14754;SDS011;7469;50.906;6.952;2022-12-18T07:41:08;24.90;;;11.13;;
14754;SDS011;7469;50.906;6.952;2022-12-18T07:43:38;23.45;;;11.88;;
14754;SDS011;7469;50.906;6.952;2022-12-18T07:46:08;25.00;;;12.05;;
14754;SDS011;7469;50.906;6.952;2022-12-18T07:48:38;19.63;;;10.65;;
14754;SDS011;7469;50.906;6.952;2022-12-18T07:51:07;22.30;;;11.13;;
14754;SDS011;7469;50.906;6.952;2022-12-18T07:53:35;21.70;;;10.82;;
14754;SDS011;7469;50.906;6.952;2022-12-18T07:56:05;22.23;;;11.15;;
14754;SDS011;7469;50.906;6.952;2022-12-18T07:58:54;19.15;;;11.05;;
14754;SDS011;7469;50.906;6.952;2022-12-18T08:01:22;21.13;;;11.48;;
14754;SDS011;7469;50.906;6.952;2022-12-18T08:03:50;22.65;;;11.48;;
14754;SDS011;7469;50.906;6.952;2022-12-18T08:06:18;20.45;;;10.45;;
14754;SDS011;7469;50.906;6.952;2022-12-18T08:08:50;22.00;;;11.05;;
14754;SDS011;7469;50.906;6.952;2022-12-18T08:11:19;22.88;;;11.10;;
14754;SDS011;7469;50.906;6.952;2022-12-18T08:13:48;26.00;;;11.90;;
14754;SDS011;7469;50.906;6.952;2022-12-18T08:16:16;20.40;;;11.73;;
14754;SDS011;7469;50.906;6.952;2022-12-18T08:18:45;22.77;;;11.50;;
14754;SDS011;7469;50.906;6.952;2022-12-18T08:21:16;22.05;;;10.98;;
14754;SDS011;7469;50.906;6.952;2022-12-18T08:23:47;21.90;;;10.90;;
14754;SDS011;7469;50.906;6.952;2022-12-18T08:26:17;24.35;;;11.13;;
14754;SDS011;7469;50.906;6.952;2022-12-18T08:28:47;18.02;;;10.88;;
14754;SDS011;7469;50.906;6.952;2022-12-18T08:31:16;22.20;;;11.63;;
14754;SDS011;7469;50.906;6.952;2022-12-18T08:33:47;28.65;;;12.55;;
14754;SDS011;7469;50.906;6.952;2022-12-18T08:36:16;21.92;;;11.77;;
14754;SDS011;7469;50.906;6.952;2022-12-18T08:38:45;24.60;;;12.20;;
14754;SDS011;7469;50.906;6.952;2022-12-18T08:41:14;24.55;;;12.18;;
14754;SDS011;7469;50.906;6.952;2022-12-18T08:43:43;21.42;;;11.30;;
14754;SDS011;7469;50.906;6.952;2022-12-18T08:46:32;23.92;;;12.63;;
14754;SDS011;7469;50.906;6.952;2022-12-18T08:49:02;20.55;;;11.35;;
14754;SDS011;7469;50.906;6.952;2022-12-18T08:51:31;20.83;;;11.70;;
14754;SDS011;7469;50.906;6.952;2022-12-18T08:53:59;22.38;;;11.07;;
14754;SDS011;7469;50.906;6.952;2022-12-18T08:56:29;22.75;;;12.80;;
14754;SDS011;7469;50.906;6.952;2022-12-18T08:58:57;24.50;;;12.90;;
14754;SDS011;7469;50.906;6.952;2022-12-18T09:01:25;26.73;;;12.65;;
14754;SDS011;7469;50.906;6.952;2022-12-18T09:03:54;26.48;;;12.63;;
14754;SDS011;7469;50.906;6.952;2022-12-18T09:06:22;27.40;;;13.73;;
14754;SDS011;7469;50.906;6.952;2022-12-18T09:08:52;26.67;;;13.35;;
14754;SDS011;7469;50.906;6.952;2022-12-18T09:11:21;22.00;;;12.48;;
14754;SDS011;7469;50.906;6.952;2022-12-18T09:13:50;23.90;;;13.35;;
14754;SDS011;7469;50.906;6.952;2022-12-18T09:16:20;20.75;;;12.02;;
14754;SDS011;7469;50.906;6.952;2022-12-18T09:18:58;21.48;;;12.30;;
14754;SDS011;7469;50.906;6.952;2022-12-18T09:21:27;23.75;;;13.07;;
14754;SDS011;7469;50.906;6.952;2022-12-18T09:23:58;21.70;;;11.88;;
14754;SDS011;7469;50.906;6.952;2022-12-18T09:26:26;23.23;;;13.27;;
14754;SDS011;7469;50.906;6.952;2022-12-18T09:28:54;23.00;;;12.43;;
14754;SDS011;7469;50.906;6.952;2022-12-18T09:31:23;20.92;;;12.38;;
14754;SDS011;7469;50.906;6.952;2022-12-18T09:33:51;22.45;;;12.82;;
14754;SDS011;7469;50.906;6.952;2022-12-18T09:36:21;22.40;;;12.65;;
14754;SDS011;7469;50.906;6.952;2022-12-18T09:38:48;27.83;;;12.77;;
14754;SDS011;7469;50.906;6.952;2022-12-18T09:41:29;22.67;;;13.07;;
14754;SDS011;7469;50.906;6.952;2022-12-18T09:44:11;23.85;;;12.23;;
14754;SDS011;7469;50.906;6.952;2022-12-18T09:46:45;19.80;;;11.70;;
14754;SDS011;7469;50.906;6.952;2022-12-18T09:49:18;21.25;;;12.25;;
14754;SDS011;7469;50.906;6.952;2022-12-18T09:51:52;20.98;;;11.75;;
14754;SDS011;7469;50.906;6.952;2022-12-18T09:54:25;17.20;;;11.07;;
14754;SDS011;7469;50.906;6.952;2022-12-18T09:56:57;22.42;;;12.05;;
14754;SDS011;7469;50.906;6.952;2022-12-18T09:59:29;20.63;;;11.85;;
14754;SDS011;7469;50.906;6.952;2022-12-18T10:02:05;21.52;;;11.65;;
14754;SDS011;7469;50.906;6.952;2022-12-18T10:04:41;19.17;;;11.60;;
14754;SDS011;7469;50.906;6.952;2022-12-18T10:07:13;21.02;;;11.30;;
14754;SDS011;7469;50.906;6.952;2022-12-18T10:09:49;23.92;;;11.80;;
14754;SDS011;7469;50.906;6.952;2022-12-18T10:12:28;19.50;;;11.23;;
14754;SDS011;7469;50.906;6.952;2022-12-18T10:15:04;21.73;;;11.25;;
14754;SDS011;7469;50.906;6.952;2022-12-18T10:17:37;19.60;;;11.50;;
14754;SDS011;7469;50.906;6.952;2022-12-18T10:20:13;18.92;;;11.48;;
14754;SDS011;7469;50.906;6.952;2022-12-18T10:22:50;21.80;;;11.77;;
14754;SDS011;7469;50.906;6.952;2022-12-18T10:25:26;19.88;;;11.45;;
14754;SDS011;7469;50.906;6.952;2022-12-18T10:28:00;20.35;;;11.88;;
14754;SDS011;7469;50.906;6.952;2022-12-18T10:30:37;21.85;;;11.60;;
14754;SDS011;7469;50.906;6.952;2022-12-18T10:33:08;23.65;;;11.40;;
14754;SDS011;7469;50.906;6.952;2022-12-18T10:35:39;18.90;;;11.15;;
14754;SDS011;7469;50.906;6.952;2022-12-18T10:38:21;18.00;;;10.63;;
14754;SDS011;7469;50.906;6.952;2022-12-18T10:40:52;19.70;;;11.02;;
14754;SDS011;7469;50.906;6.952;2022-12-18T10:43:22;19.42;;;11.05;;
14754;SDS011;7469;50.906;6.952;2022-12-18T10:46:00;19.75;;;11.50;;
14754;SDS011;7469;50.906;6.952;2022-12-18T10:48:31;21.70;;;11.73;;
14754;SDS011;7469;50.906;6.952;2022-12-18T10:51:01;21.25;;;11.25;;
14754;SDS011;7469;50.906;6.952;2022-12-18T10:53:41;19.00;;;10.48;;
14754;SDS011;7469;50.906;6.952;2022-12-18T10:56:09;16.40;;;10.43;;
14754;SDS011;7469;50.906;6.952;2022-12-18T10:58:38;17.95;;;10.50;;
14754;SDS011;7469;50.906;6.952;2022-12-18T11:01:09;18.77;;;10.80;;
14754;SDS011;7469;50.906;6.952;2022-12-18T11:03:39;17.23;;;10.75;;
14754;SDS011;7469;50.906;6.952;2022-12-18T11:06:09;17.13;;;9.75;;
14754;SDS011;7469;50.906;6.952;2022-12-18T11:08:40;19.15;;;10.90;;
14754;SDS011;7469;50.906;6.952;2022-12-18T11:11:18;19.38;;;10.75;;
14754;SDS011;7469;50.906;6.952;2022-12-18T11:13:51;19.50;;;10.77;;
14754;SDS011;7469;50.906;6.952;2022-12-18T11:16:26;19.27;;;10.52;;
14754;SDS011;7469;50.906;6.952;2022-12-18T11:19:07;19.10;;;10.07;;
14754;SDS011;7469;50.906;6.952;2022-12-18T11:21:46;17.13;;;10.32;;
14754;SDS011;7469;50.906;6.952;2022-12-18T11:24:20;20.20;;;10.68;;
14754;SDS011;7469;50.906;6.952;2022-12-18T11:26:52;19.42;;;11.23;;
14754;SDS011;7469;50.906;6.952;2022-12-18T11:29:28;18.05;;;10.98;;
14754;SDS011;7469;50.906;6.952;2022-12-18T11:32:12;19.35;;;10.10;;
14754;SDS011;7469;50.906;6.952;2022-12-18T11:35:10;17.42;;;10.15;;
14754;SDS011;7469;50.906;6.952;2022-12-18T11:37:46;21.02;;;10.32;;
14754;SDS011;7469;50.906;6.952;2022-12-18T11:40:20;23.33;;;11.98;;
14754;SDS011;7469;50.906;6.952;2022-12-18T11:42:54;19.60;;;10.70;;
14754;SDS011;7469;50.906;6.952;2022-12-18T11:45:30;23.88;;;12.25;;
14754;SDS011;7469;50.906;6.952;2022-12-18T11:48:05;22.00;;;12.23;;
14754;SDS011;7469;50.906;6.952;2022-12-18T11:50:43;17.35;;;11.23;;
14754;SDS011;7469;50.906;6.952;2022-12-18T11:53:16;19.88;;;10.52;;
14754;SDS011;7469;50.906;6.952;2022-12-18T11:55:51;17.45;;;10.93;;
14754;SDS011;7469;50.906;6.952;2022-12-18T11:58:37;19.70;;;10.98;;
14754;SDS011;7469;50.906;6.952;2022-12-18T12:01:16;21.92;;;11.98;;
14754;SDS011;7469;50.906;6.952;2022-12-18T12:04:11;19.17;;;11.20;;
14754;SDS011;7469;50.906;6.952;2022-12-18T12:07:06;20.38;;;11.75;;
14754;SDS011;7469;50.906;6.952;2022-12-18T12:09:45;22.65;;;12.23;;
14754;SDS011;7469;50.906;6.952;2022-12-18T12:12:23;19.38;;;11.60;;
14754;SDS011;7469;50.906;6.952;2022-12-18T12:15:17;18.88;;;11.43;;
14754;SDS011;7469;50.906;6.952;2022-12-18T12:17:59;21.77;;;12.65;;
14754;SDS011;7469;50.906;6.952;2022-12-18T12:20:40;20.45;;;10.65;;
14754;SDS011;7469;50.906;6.952;2022-12-18T12:23:15;20.60;;;11.52;;
14754;SDS011;7469;50.906;6.952;2022-12-18T12:25:54;19.10;;;10.55;;
14754;SDS011;7469;50.906;6.952;2022-12-18T12:28:36;21.27;;;11.68;;
14754;SDS011;7469;50.906;6.952;2022-12-18T12:31:20;23.52;;;11.68;;
14754;SDS011;7469;50.906;6.952;2022-12-18T12:34:01;24.60;;;11.88;;
14754;SDS011;7469;50.906;6.952;2022-12-18T12:36:38;23.23;;;12.15;;
14754;SDS011;7469;50.906;6.952;2022-12-18T12:39:18;22.85;;;12.48;;
14754;SDS011;7469;50.906;6.952;2022-12-18T12:41:49;20.08;;;12.07;;
14754;SDS011;7469;50.906;6.952;2022-12-18T12:44:45;27.13;;;12.70;;
14754;SDS011;7469;50.906;6.952;2022-12-18T12:47:22;23.15;;;13.52;;
14754;SDS011;7469;50.906;6.952;2022-12-18T12:49:55;22.80;;;11.98;;
14754;SDS011;7469;50.906;6.952;2022-12-18T12:52:27;23.02;;;12.18;;
14754;SDS011;7469;50.906;6.952;2022-12-18T12:55:00;22.27;;;12.25;;
14754;SDS011;7469;50.906;6.952;2022-12-18T12:57:40;20.30;;;12.15;;
14754;SDS011;7469;50.906;6.952;2022-12-18T13:00:14;23.48;;;11.85;;
14754;SDS011;7469;50.906;6.952;2022-12-18T13:02:47;22.38;;;12.15;;
14754;SDS011;7469;50.906;6.952;2022-12-18T13:05:24;23.55;;;11.55;;
14754;SDS011;7469;50.906;6.952;2022-12-18T13:07:56;23.27;;;11.73;;
14754;SDS011;7469;50.906;6.952;2022-12-18T13:10:31;23.85;;;13.20;;
14754;SDS011;7469;50.906;6.952;2022-12-18T13:13:02;23.45;;;12.48;;
14754;SDS011;7469;50.906;6.952;2022-12-18T13:15:36;22.50;;;12.43;;
14754;SDS011;7469;50.906;6.952;2022-12-18T13:18:18;23.45;;;11.77;;
14754;SDS011;7469;50.906;6.952;2022-12-18T13:20:50;22.05;;;12.73;;
14754;SDS011;7469;50.906;6.952;2022-12-18T13:23:31;19.02;;;11.25;;
14754;SDS011;7469;50.906;6.952;2022-12-18T13:28:56;23.00;;;11.98;;
14754;SDS011;7469;50.906;6.952;2022-12-18T13:34:27;21.35;;;11.93;;
14754;SDS011;7469;50.906;6.952;2022-12-18T13:39:59;26.75;;;12.75;;
14754;SDS011;7469;50.906;6.952;2022-12-18T13:42:31;23.20;;;12.90;;
14754;SDS011;7469;50.906;6.952;2022-12-18T13:45:43;23.75;;;13.10;;
14754;SDS011;7469;50.906;6.952;2022-12-18T13:48:18;26.80;;;13.75;;
14754;SDS011;7469;50.906;6.952;2022-12-18T13:50:52;24.38;;;13.80;;
14754;SDS011;7469;50.906;6.952;2022-12-18T13:53:25;23.67;;;12.80;;
14754;SDS011;7469;50.906;6.952;2022-12-18T13:55:56;24.40;;;12.02;;
14754;SDS011;7469;50.906;6.952;2022-12-18T13:58:24;24.05;;;13.02;;
14754;SDS011;7469;50.906;6.952;2022-12-18T14:00:52;24.30;;;13.02;;
14754;SDS011;7469;50.906;6.952;2022-12-18T14:03:23;22.65;;;13.23;;
14754;SDS011;7469;50.906;6.952;2022-12-18T14:05:54;25.13;;;13.00;;
14754;SDS011;7469;50.906;6.952;2022-12-18T14:08:23;23.25;;;13.60;;
14754;SDS011;7469;50.906;6.952;2022-12-18T14:10:57;26.45;;;13.35;;
14754;SDS011;7469;50.906;6.952;2022-12-18T14:13:26;28.77;;;13.43;;
14754;SDS011;7469;50.906;6.952;2022-12-18T14:15:58;25.90;;;13.20;;
14754;SDS011;7469;50.906;6.952;2022-12-18T14:18:31;26.42;;;14.15;;
14754;SDS011;7469;50.906;6.952;2022-12-18T14:21:06;23.17;;;12.88;;
14754;SDS011;7469;50.906;6.952;2022-12-18T14:23:44;24.98;;;13.55;;
14754;SDS011;7469;50.906;6.952;2022-12-18T14:26:21;27.10;;;15.73;;
14754;SDS011;7469;50.906;6.952;2022-12-18T14:28:53;28.92;;;15.52;;
14754;SDS011;7469;50.906;6.952;2022-12-18T14:31:23;27.77;;;15.52;;
14754;SDS011;7469;50.906;6.952;2022-12-18T14:33:56;25.25;;;14.52;;
14754;SDS011;7469;50.906;6.952;2022-12-18T14:36:25;34.85;;;15.48;;
14754;SDS011;7469;50.906;6.952;2022-12-18T14:38:54;26.45;;;14.30;;
14754;SDS011;7469;50.906;6.952;2022-12-18T14:41:23;25.15;;;13.75;;
14754;SDS011;7469;50.906;6.952;2022-12-18T14:43:53;23.83;;;13.90;;
14754;SDS011;7469;50.906;6.952;2022-12-18T14:46:28;23.85;;;13.57;;
14754;SDS011;7469;50.906;6.952;2022-12-18T14:49:02;27.17;;;14.57;;
14754;SDS011;7469;50.906;6.952;2022-12-18T14:51:32;23.58;;;12.80;;
14754;SDS011;7469;50.906;6.952;2022-12-18T14:54:02;26.30;;;14.57;;
14754;SDS011;7469;50.906;6.952;2022-12-18T14:56:34;28.50;;;15.43;;
14754;SDS011;7469;50.906;6.952;2022-12-18T14:59:04;25.52;;;13.43;;
14754;SDS011;7469;50.906;6.952;2022-12-18T15:01:48;25.65;;;13.85;;
14754;SDS011;7469;50.906;6.952;2022-12-18T15:04:28;24.15;;;12.93;;
14754;SDS011;7469;50.906;6.952;2022-12-18T15:07:05;24.95;;;14.00;;
14754;SDS011;7469;50.906;6.952;2022-12-18T15:09:39;23.42;;;13.32;;
14754;SDS011;7469;50.906;6.952;2022-12-18T15:12:19;23.63;;;12.57;;
14754;SDS011;7469;50.906;6.952;2022-12-18T15:14:53;26.05;;;14.43;;
14754;SDS011;7469;50.906;6.952;2022-12-18T15:17:21;26.50;;;13.27;;